sensor_id;sensor_type;location;lat;lon;timestamp;pressure;altitude;pressure_sealevel;temperature;humidity
15678;BME280;7939;50.814;6.368;2023-03-01T00:01:52;101191.31;;;6.80;49.02
15678;BME280;7939;50.814;6.368;2023-03-01T00:04:19;101178.41;;;6.75;49.21
15678;BME280;7939;50.814;6.368;2023-03-01T00:06:45;101173.28;;;6.73;49.33
15678;BME280;7939;50.814;6.368;2023-03-01T00:09:13;101171.47;;;6.71;48.92
15678;BME280;7939;50.814;6.368;2023-03-01T00:11:41;101175.81;;;6.73;49.54
15678;BME280;7939;50.814;6.368;2023-03-01T00:14:07;101175.81;;;6.73;49.60
15678;BME280;7939;50.814;6.368;2023-03-01T00:16:35;101162.25;;;6.73;48.81
15678;BME280;7939;50.814;6.368;2023-03-01T00:19:03;101166.34;;;6.69;49.03
15678;BME280;7939;50.814;6.368;2023-03-01T00:21:30;101170.38;;;6.64;49.81
15678;BME280;7939;50.814;6.368;2023-03-01T00:23:57;101174.66;;;6.65;49.33
15678;BME280;7939;50.814;6.368;2023-03-01T00:26:26;101178.94;;;6.66;49.01
15678;BME280;7939;50.814;6.368;2023-03-01T00:28:54;101180.59;;;6.66;49.61
15678;BME280;7939;50.814;6.368;2023-03-01T00:31:24;101183.84;;;6.62;49.08
15678;BME280;7939;50.814;6.368;2023-03-01T00:33:52;101179.69;;;6.64;49.16
15678;BME280;7939;50.814;6.368;2023-03-01T00:36:23;101187.19;;;6.61;48.74
15678;BME280;7939;50.814;6.368;2023-03-01T00:38:51;101185.44;;;6.60;48.78
15678;BME280;7939;50.814;6.368;2023-03-01T00:41:19;101182.84;;;6.58;49.14
15678;BME280;7939;50.814;6.368;2023-03-01T00:43:48;101183.72;;;6.59;49.57
15678;BME280;7939;50.814;6.368;2023-03-01T00:46:18;101183.94;;;6.65;49.89
15678;BME280;7939;50.814;6.368;2023-03-01T00:48:45;101186.38;;;6.62;49.69
15678;BME280;7939;50.814;6.368;2023-03-01T00:51:14;101176.22;;;6.62;49.09
15678;BME280;7939;50.814;6.368;2023-03-01T00:53:42;101181.34;;;6.63;49.34
15678;BME280;7939;50.814;6.368;2023-03-01T00:56:10;101177.75;;;6.58;49.66
15678;BME280;7939;50.814;6.368;2023-03-01T00:58:37;101176.09;;;6.59;49.18
15678;BME280;7939;50.814;6.368;2023-03-01T01:01:07;101170.19;;;6.60;48.82
15678;BME280;7939;50.814;6.368;2023-03-01T01:03:44;101173.63;;;6.60;49.42
15678;BME280;7939;50.814;6.368;2023-03-01T01:06:18;101173.41;;;6.54;49.51
15678;BME280;7939;50.814;6.368;2023-03-01T01:08:45;101172.59;;;6.55;49.19
15678;BME280;7939;50.814;6.368;2023-03-01T01:11:12;101171.72;;;6.55;49.89
15678;BME280;7939;50.814;6.368;2023-03-01T01:13:40;101167.41;;;6.54;49.06
15678;BME280;7939;50.814;6.368;2023-03-01T01:16:07;101166.50;;;6.52;49.18
15678;BME280;7939;50.814;6.368;2023-03-01T01:18:34;101163.28;;;6.56;49.09
15678;BME280;7939;50.814;6.368;2023-03-01T01:21:08;101152.06;;;6.51;49.11
15678;BME280;7939;50.814;6.368;2023-03-01T01:23:36;101147.00;;;6.51;49.75
15678;BME280;7939;50.814;6.368;2023-03-01T01:26:04;101149.50;;;6.49;49.25
15678;BME280;7939;50.814;6.368;2023-03-01T01:28:31;101149.44;;;6.47;49.68
15678;BME280;7939;50.814;6.368;2023-03-01T01:30:57;101148.63;;;6.48;49.60
15678;BME280;7939;50.814;6.368;2023-03-01T01:33:24;101144.47;;;6.51;49.39
15678;BME280;7939;50.814;6.368;2023-03-01T01:35:52;101141.63;;;6.43;49.09
15678;BME280;7939;50.814;6.368;2023-03-01T01:38:20;101144.19;;;6.43;49.69
15678;BME280;7939;50.814;6.368;2023-03-01T01:40:48;101145.03;;;6.43;49.11
15678;BME280;7939;50.814;6.368;2023-03-01T01:43:19;101134.84;;;6.42;50.02
15678;BME280;7939;50.814;6.368;2023-03-01T01:45:46;101127.91;;;6.38;48.91
15678;BME280;7939;50.814;6.368;2023-03-01T01:48:17;101125.41;;;6.39;50.03
15678;BME280;7939;50.814;6.368;2023-03-01T01:50:45;101122.91;;;6.41;49.58
15678;BME280;7939;50.814;6.368;2023-03-01T01:53:20;101117.94;;;6.42;49.59
15678;BME280;7939;50.814;6.368;2023-03-01T01:55:50;101115.19;;;6.38;49.83
15678;BME280;7939;50.814;6.368;2023-03-01T01:58:19;101116.13;;;6.40;49.19
15678;BME280;7939;50.814;6.368;2023-03-01T02:00:47;101102.47;;;6.36;49.29
15678;BME280;7939;50.814;6.368;2023-03-01T02:03:17;101111.84;;;6.39;49.98
15678;BME280;7939;50.814;6.368;2023-03-01T02:05:49;101111.84;;;6.39;49.33
15678;BME280;7939;50.814;6.368;2023-03-01T02:08:20;101108.44;;;6.38;49.88
15678;BME280;7939;50.814;6.368;2023-03-01T02:10:50;101104.13;;;6.36;49.51
15678;BME280;7939;50.814;6.368;2023-03-01T02:13:18;101093.13;;;6.35;49.63
15678;BME280;7939;50.814;6.368;2023-03-01T02:15:44;101091.44;;;6.36;49.81
15678;BME280;7939;50.814;6.368;2023-03-01T02:18:14;101098.91;;;6.33;49.67
15678;BME280;7939;50.814;6.368;2023-03-01T02:20:50;101088.66;;;6.30;49.97
15678;BME280;7939;50.814;6.368;2023-03-01T02:23:22;101091.31;;;6.33;50.14
15678;BME280;7939;50.814;6.368;2023-03-01T02:25:55;101082.00;;;6.33;49.37
15678;BME280;7939;50.814;6.368;2023-03-01T02:28:30;101081.72;;;6.26;49.62
15678;BME280;7939;50.814;6.368;2023-03-01T02:30:57;101078.50;;;6.30;49.74
15678;BME280;7939;50.814;6.368;2023-03-01T02:33:41;101086.84;;;6.27;49.64
15678;BME280;7939;50.814;6.368;2023-03-01T02:36:10;101076.66;;;6.26;49.40
15678;BME280;7939;50.814;6.368;2023-03-01T02:38:39;101079.88;;;6.21;49.76
15678;BME280;7939;50.814;6.368;2023-03-01T02:41:07;101077.19;;;6.17;49.67
15678;BME280;7939;50.814;6.368;2023-03-01T02:43:36;101074.78;;;6.21;49.84
15678;BME280;7939;50.814;6.368;2023-03-01T02:46:05;101076.47;;;6.21;49.47
15678;BME280;7939;50.814;6.368;2023-03-01T02:48:41;101077.97;;;6.16;49.84
15678;BME280;7939;50.814;6.368;2023-03-01T02:51:16;101074.56;;;6.15;50.12
15678;BME280;7939;50.814;6.368;2023-03-01T02:53:53;101076.19;;;6.13;49.87
15678;BME280;7939;50.814;6.368;2023-03-01T02:56:23;101086.56;;;6.19;49.81
15678;BME280;7939;50.814;6.368;2023-03-01T02:58:51;101083.94;;;6.16;49.25
15678;BME280;7939;50.814;6.368;2023-03-01T03:01:19;101086.38;;;6.15;50.02
15678;BME280;7939;50.814;6.368;2023-03-01T03:03:46;101086.31;;;6.13;50.29
15678;BME280;7939;50.814;6.368;2023-03-01T03:06:13;101092.16;;;6.11;50.18
15678;BME280;7939;50.814;6.368;2023-03-01T03:08:40;101090.31;;;6.07;49.83
15678;BME280;7939;50.814;6.368;2023-03-01T03:11:06;101087.91;;;6.10;49.78
15678;BME280;7939;50.814;6.368;2023-03-01T03:13:33;101081.94;;;6.09;50.12
15678;BME280;7939;50.814;6.368;2023-03-01T03:16:02;101079.16;;;6.03;49.74
15678;BME280;7939;50.814;6.368;2023-03-01T03:18:29;101078.41;;;6.06;49.60
15678;BME280;7939;50.814;6.368;2023-03-01T03:20:56;101085.13;;;6.04;49.62
15678;BME280;7939;50.814;6.368;2023-03-01T03:23:23;101084.22;;;6.03;50.42
15678;BME280;7939;50.814;6.368;2023-03-01T03:25:50;101079.16;;;6.03;50.19
15678;BME280;7939;50.814;6.368;2023-03-01T03:28:17;101066.34;;;6.00;50.01
15678;BME280;7939;50.814;6.368;2023-03-01T03:30:45;101066.16;;;5.95;49.79
15678;BME280;7939;50.814;6.368;2023-03-01T03:33:13;101064.63;;;5.99;50.11
15678;BME280;7939;50.814;6.368;2023-03-01T03:35:42;101063.69;;;5.97;50.08
15678;BME280;7939;50.814;6.368;2023-03-01T03:38:10;101064.50;;;5.96;50.01
15678;BME280;7939;50.814;6.368;2023-03-01T03:40:43;101056.03;;;5.95;50.22
15678;BME280;7939;50.814;6.368;2023-03-01T03:43:12;101063.63;;;5.95;49.79
15678;BME280;7939;50.814;6.368;2023-03-01T03:45:39;101055.09;;;5.93;50.53
15678;BME280;7939;50.814;6.368;2023-03-01T03:48:08;101053.63;;;5.99;50.33
15678;BME280;7939;50.814;6.368;2023-03-01T03:50:38;101044.16;;;5.94;50.11
15678;BME280;7939;50.814;6.368;2023-03-01T03:53:08;101040.66;;;5.91;49.71
15678;BME280;7939;50.814;6.368;2023-03-01T03:55:34;101044.78;;;5.90;50.18
15678;BME280;7939;50.814;6.368;2023-03-01T03:58:05;101049.00;;;5.90;50.14
15678;BME280;7939;50.814;6.368;2023-03-01T04:00:33;101059.28;;;5.91;50.06
15678;BME280;7939;50.814;6.368;2023-03-01T04:03:00;101053.84;;;5.84;50.25
15678;BME280;7939;50.814;6.368;2023-03-01T04:05:27;101052.16;;;5.84;49.99
15678;BME280;7939;50.814;6.368;2023-03-01T04:07:56;101052.25;;;5.86;49.60
15678;BME280;7939;50.814;6.368;2023-03-01T04:10:34;101046.22;;;5.84;50.02
15678;BME280;7939;50.814;6.368;2023-03-01T04:13:01;101045.31;;;5.82;49.86
15678;BME280;7939;50.814;6.368;2023-03-01T04:15:30;101038.63;;;5.84;49.88
15678;BME280;7939;50.814;6.368;2023-03-01T04:17:58;101033.50;;;5.82;49.94
15678;BME280;7939;50.814;6.368;2023-03-01T04:20:27;101034.16;;;5.78;50.29
15678;BME280;7939;50.814;6.368;2023-03-01T04:22:59;101026.56;;;5.78;50.01
15678;BME280;7939;50.814;6.368;2023-03-01T04:25:33;101028.31;;;5.79;50.01
15678;BME280;7939;50.814;6.368;2023-03-01T04:28:00;101024.03;;;5.78;49.91
15678;BME280;7939;50.814;6.368;2023-03-01T04:30:26;101018.91;;;5.77;50.02
15678;BME280;7939;50.814;6.368;2023-03-01T04:32:53;101018.84;;;5.75;50.03
15678;BME280;7939;50.814;6.368;2023-03-01T04:35:19;101016.31;;;5.75;49.78
15678;BME280;7939;50.814;6.368;2023-03-01T04:37:46;101014.56;;;5.74;50.07
15678;BME280;7939;50.814;6.368;2023-03-01T04:40:14;101017.97;;;5.75;50.03
15678;BME280;7939;50.814;6.368;2023-03-01T04:42:42;101023.81;;;5.72;50.38
15678;BME280;7939;50.814;6.368;2023-03-01T04:45:09;101030.53;;;5.72;50.25
15678;BME280;7939;50.814;6.368;2023-03-01T04:47:39;101021.28;;;5.72;49.73
15678;BME280;7939;50.814;6.368;2023-03-01T04:50:06;101021.09;;;5.67;49.89
15678;BME280;7939;50.814;6.368;2023-03-01T04:52:34;101028.78;;;5.71;49.99
15678;BME280;7939;50.814;6.368;2023-03-01T04:55:00;101020.28;;;5.68;50.17
15678;BME280;7939;50.814;6.368;2023-03-01T04:57:28;101021.03;;;5.66;50.13
15678;BME280;7939;50.814;6.368;2023-03-01T04:59:55;101025.19;;;5.65;50.17
15678;BME280;7939;50.814;6.368;2023-03-01T05:02:22;101022.66;;;5.65;50.59
15678;BME280;7939;50.814;6.368;2023-03-01T05:04:48;101015.75;;;5.61;49.90
15678;BME280;7939;50.814;6.368;2023-03-01T05:07:15;101011.59;;;5.63;50.43
15678;BME280;7939;50.814;6.368;2023-03-01T05:09:44;101011.38;;;5.57;50.23
15678;BME280;7939;50.814;6.368;2023-03-01T05:12:11;101007.34;;;5.62;49.87
15678;BME280;7939;50.814;6.368;2023-03-01T05:14:39;101002.13;;;5.59;50.17
15678;BME280;7939;50.814;6.368;2023-03-01T05:17:06;101004.56;;;5.56;50.31
15678;BME280;7939;50.814;6.368;2023-03-01T05:19:33;101004.63;;;5.58;50.11
15678;BME280;7939;50.814;6.368;2023-03-01T05:22:00;101003.72;;;5.56;49.88
15678;BME280;7939;50.814;6.368;2023-03-01T05:24:31;101002.09;;;5.58;50.16
15678;BME280;7939;50.814;6.368;2023-03-01T05:26:58;101009.53;;;5.53;50.14
15678;BME280;7939;50.814;6.368;2023-03-01T05:29:27;101010.25;;;5.51;50.61
15678;BME280;7939;50.814;6.368;2023-03-01T05:31:56;101016.09;;;5.48;50.28
15678;BME280;7939;50.814;6.368;2023-03-01T05:34:24;101001.78;;;5.50;50.51
15678;BME280;7939;50.814;6.368;2023-03-01T05:36:51;101004.22;;;5.47;50.22
15678;BME280;7939;50.814;6.368;2023-03-01T05:39:19;101005.00;;;5.46;49.99
15678;BME280;7939;50.814;6.368;2023-03-01T05:41:47;101003.06;;;5.40;50.34
15678;BME280;7939;50.814;6.368;2023-03-01T05:44:14;101006.56;;;5.43;50.49
15678;BME280;7939;50.814;6.368;2023-03-01T05:46:41;101004.88;;;5.43;50.24
15678;BME280;7939;50.814;6.368;2023-03-01T05:49:09;101003.97;;;5.41;50.49
15678;BME280;7939;50.814;6.368;2023-03-01T05:51:35;101003.97;;;5.41;50.54
15678;BME280;7939;50.814;6.368;2023-03-01T05:54:02;101002.22;;;5.40;50.58
15678;BME280;7939;50.814;6.368;2023-03-01T05:56:32;101014.72;;;5.35;50.49
15678;BME280;7939;50.814;6.368;2023-03-01T05:58:58;101020.75;;;5.39;50.58
15678;BME280;7939;50.814;6.368;2023-03-01T06:01:25;101021.63;;;5.39;50.37
15678;BME280;7939;50.814;6.368;2023-03-01T06:03:52;101013.16;;;5.39;50.36
15678;BME280;7939;50.814;6.368;2023-03-01T06:06:20;101012.34;;;5.40;50.35
15678;BME280;7939;50.814;6.368;2023-03-01T06:08:47;101011.31;;;5.35;50.36
15678;BME280;7939;50.814;6.368;2023-03-01T06:11:13;101017.16;;;5.34;50.10
15678;BME280;7939;50.814;6.368;2023-03-01T06:13:41;101019.69;;;5.34;50.46
15678;BME280;7939;50.814;6.368;2023-03-01T06:16:08;101012.09;;;5.34;50.32
15678;BME280;7939;50.814;6.368;2023-03-01T06:18:35;101003.53;;;5.30;50.38
15678;BME280;7939;50.814;6.368;2023-03-01T06:21:02;101011.78;;;5.26;50.54
15678;BME280;7939;50.814;6.368;2023-03-01T06:23:30;101011.94;;;5.29;50.07
15678;BME280;7939;50.814;6.368;2023-03-01T06:25:57;101005.84;;;5.26;50.92
15678;BME280;7939;50.814;6.368;2023-03-01T06:28:24;100998.97;;;5.22;50.65
15678;BME280;7939;50.814;6.368;2023-03-01T06:30:51;100999.13;;;5.26;50.32
15678;BME280;7939;50.814;6.368;2023-03-01T06:33:18;100997.53;;;5.28;50.46
15678;BME280;7939;50.814;6.368;2023-03-01T06:35:45;100989.75;;;5.24;50.45
15678;BME280;7939;50.814;6.368;2023-03-01T06:38:12;100996.53;;;5.25;50.42
15678;BME280;7939;50.814;6.368;2023-03-01T06:40:41;100996.53;;;5.25;50.58
15678;BME280;7939;50.814;6.368;2023-03-01T06:43:08;100993.94;;;5.23;50.82
15678;BME280;7939;50.814;6.368;2023-03-01T06:45:34;100999.97;;;5.27;50.50
15678;BME280;7939;50.814;6.368;2023-03-01T06:48:02;100995.41;;;5.18;50.54
15678;BME280;7939;50.814;6.368;2023-03-01T06:50:30;101000.53;;;5.20;50.65
15678;BME280;7939;50.814;6.368;2023-03-01T06:52:57;101001.50;;;5.22;50.51
15678;BME280;7939;50.814;6.368;2023-03-01T06:55:24;100999.72;;;5.21;50.46
15678;BME280;7939;50.814;6.368;2023-03-01T06:57:55;100998.56;;;5.12;50.67
15678;BME280;7939;50.814;6.368;2023-03-01T07:00:23;100994.56;;;5.18;50.61
15678;BME280;7939;50.814;6.368;2023-03-01T07:02:50;100998.63;;;5.14;50.64
15678;BME280;7939;50.814;6.368;2023-03-01T07:05:16;101002.97;;;5.17;50.89
15678;BME280;7939;50.814;6.368;2023-03-01T07:07:43;101006.97;;;5.11;50.58
15678;BME280;7939;50.814;6.368;2023-03-01T07:10:10;101002.09;;;5.16;50.47
15678;BME280;7939;50.814;6.368;2023-03-01T07:12:37;101003.03;;;5.18;50.52
15678;BME280;7939;50.814;6.368;2023-03-01T07:15:08;101003.81;;;5.17;50.46
15678;BME280;7939;50.814;6.368;2023-03-01T07:17:35;101003.94;;;5.20;50.45
15678;BME280;7939;50.814;6.368;2023-03-01T07:20:02;101002.81;;;5.13;50.46
15678;BME280;7939;50.814;6.368;2023-03-01T07:22:29;101002.88;;;5.15;50.66
15678;BME280;7939;50.814;6.368;2023-03-01T07:24:55;100998.63;;;5.14;50.71
15678;BME280;7939;50.814;6.368;2023-03-01T07:27:22;101002.75;;;5.12;50.82
15678;BME280;7939;50.814;6.368;2023-03-01T07:29:49;100995.22;;;5.13;50.80
15678;BME280;7939;50.814;6.368;2023-03-01T07:32:17;100989.44;;;5.16;50.70
15678;BME280;7939;50.814;6.368;2023-03-01T07:34:43;100996.84;;;5.11;50.78
15678;BME280;7939;50.814;6.368;2023-03-01T07:37:10;100988.56;;;5.16;50.77
15678;BME280;7939;50.814;6.368;2023-03-01T07:39:36;100990.16;;;5.13;50.58
15678;BME280;7939;50.814;6.368;2023-03-01T07:42:03;100992.69;;;5.13;50.68
15678;BME280;7939;50.814;6.368;2023-03-01T07:44:29;100992.75;;;5.15;50.86
15678;BME280;7939;50.814;6.368;2023-03-01T07:46:56;100987.75;;;5.17;50.93
15678;BME280;7939;50.814;6.368;2023-03-01T07:49:24;100987.81;;;5.18;50.93
15678;BME280;7939;50.814;6.368;2023-03-01T07:51:52;100986.75;;;5.13;50.80
15678;BME280;7939;50.814;6.368;2023-03-01T07:54:19;100995.09;;;5.10;51.05
15678;BME280;7939;50.814;6.368;2023-03-01T07:56:45;100993.53;;;4.93;50.93
15678;BME280;7939;50.814;6.368;2023-03-01T07:59:12;100986.56;;;5.08;51.02
15678;BME280;7939;50.814;6.368;2023-03-01T08:01:39;100985.78;;;5.09;51.40
15678;BME280;7939;50.814;6.368;2023-03-01T08:04:07;100989.44;;;5.16;51.12
15678;BME280;7939;50.814;6.368;2023-03-01T08:06:35;100982.03;;;5.01;51.13
15678;BME280;7939;50.814;6.368;2023-03-01T08:09:02;100985.09;;;5.13;51.04
15678;BME280;7939;50.814;6.368;2023-03-01T08:11:29;100980.97;;;4.96;50.97
15678;BME280;7939;50.814;6.368;2023-03-01T08:13:56;100975.56;;;5.08;51.15
15678;BME280;7939;50.814;6.368;2023-03-01T08:16:23;100982.25;;;5.06;51.03
15678;BME280;7939;50.814;6.368;2023-03-01T08:18:50;100979.41;;;4.98;51.42
15678;BME280;7939;50.814;6.368;2023-03-01T08:21:17;100976.25;;;5.04;51.35
15678;BME280;7939;50.814;6.368;2023-03-01T08:23:46;100977.59;;;4.96;51.20
15678;BME280;7939;50.814;6.368;2023-03-01T08:26:14;100973.78;;;5.05;51.32
15678;BME280;7939;50.814;6.368;2023-03-01T08:28:42;100974.66;;;5.06;51.50
15678;BME280;7939;50.814;6.368;2023-03-01T08:31:18;100979.56;;;5.22;51.28
15678;BME280;7939;50.814;6.368;2023-03-01T08:33:46;100977.97;;;5.26;51.55
15678;BME280;7939;50.814;6.368;2023-03-01T08:36:16;100987.88;;;5.20;51.04
15678;BME280;7939;50.814;6.368;2023-03-01T08:38:43;100980.78;;;5.11;51.49
15678;BME280;7939;50.814;6.368;2023-03-01T08:41:12;100990.97;;;5.12;51.42
15678;BME280;7939;50.814;6.368;2023-03-01T08:43:39;100988.53;;;4.95;51.13
15678;BME280;7939;50.814;6.368;2023-03-01T08:46:06;100981.69;;;4.92;51.12
15678;BME280;7939;50.814;6.368;2023-03-01T08:48:33;100977.97;;;4.84;51.28
15678;BME280;7939;50.814;6.368;2023-03-01T08:51:07;100979.59;;;4.83;50.89
15678;BME280;7939;50.814;6.368;2023-03-01T08:53:34;100974.69;;;4.86;51.64
15678;BME280;7939;50.814;6.368;2023-03-01T08:56:00;100974.22;;;4.76;51.09
15678;BME280;7939;50.814;6.368;2023-03-01T08:58:29;100975.59;;;4.88;51.80
15678;BME280;7939;50.814;6.368;2023-03-01T09:00:56;100970.09;;;4.58;51.24
15678;BME280;7939;50.814;6.368;2023-03-01T09:03:23;100971.69;;;4.76;51.36
15678;BME280;7939;50.814;6.368;2023-03-01T09:05:50;100973.88;;;4.87;51.57
15678;BME280;7939;50.814;6.368;2023-03-01T09:08:17;100965.22;;;4.82;51.31
15678;BME280;7939;50.814;6.368;2023-03-01T09:10:44;100967.09;;;4.86;51.24
15678;BME280;7939;50.814;6.368;2023-03-01T09:13:11;100976.38;;;5.07;51.41
15678;BME280;7939;50.814;6.368;2023-03-01T09:15:39;100969.47;;;5.03;50.96
15678;BME280;7939;50.814;6.368;2023-03-01T09:18:05;100975.00;;;4.94;51.50
15678;BME280;7939;50.814;6.368;2023-03-01T09:20:32;100975.91;;;4.96;51.09
15678;BME280;7939;50.814;6.368;2023-03-01T09:22:59;100969.13;;;4.95;51.22
15678;BME280;7939;50.814;6.368;2023-03-01T09:25:26;100973.16;;;5.11;51.71
15678;BME280;7939;50.814;6.368;2023-03-01T09:27:54;100975.09;;;5.17;51.06
15678;BME280;7939;50.814;6.368;2023-03-01T09:30:21;100975.75;;;5.33;51.34
15678;BME280;7939;50.814;6.368;2023-03-01T09:32:50;100971.78;;;5.40;51.37
15678;BME280;7939;50.814;6.368;2023-03-01T09:35:18;100970.69;;;5.33;51.15
15678;BME280;7939;50.814;6.368;2023-03-01T09:37:45;100965.25;;;5.45;51.18
15678;BME280;7939;50.814;6.368;2023-03-01T09:40:14;100970.50;;;5.50;51.27
15678;BME280;7939;50.814;6.368;2023-03-01T09:42:47;100962.13;;;5.30;50.45
15678;BME280;7939;50.814;6.368;2023-03-01T09:45:23;100961.00;;;5.23;50.12
15678;BME280;7939;50.814;6.368;2023-03-01T09:47:53;100953.81;;;5.13;50.01
15678;BME280;7939;50.814;6.368;2023-03-01T09:50:21;100952.91;;;5.11;50.30
15678;BME280;7939;50.814;6.368;2023-03-01T09:52:52;100948.09;;;5.17;50.06
15678;BME280;7939;50.814;6.368;2023-03-01T09:55:26;100940.47;;;5.17;50.62
15678;BME280;7939;50.814;6.368;2023-03-01T09:58:01;100938.06;;;5.41;50.09
15678;BME280;7939;50.814;6.368;2023-03-01T10:00:37;100934.72;;;5.21;49.99
15678;BME280;7939;50.814;6.368;2023-03-01T10:03:14;100948.38;;;5.25;49.81
15678;BME280;7939;50.814;6.368;2023-03-01T10:06:01;100941.72;;;5.48;49.94
15678;BME280;7939;50.814;6.368;2023-03-01T10:08:34;100942.66;;;5.51;50.30
15678;BME280;7939;50.814;6.368;2023-03-01T10:11:05;100942.66;;;5.51;49.84
15678;BME280;7939;50.814;6.368;2023-03-01T10:13:36;100940.34;;;5.35;49.68
15678;BME280;7939;50.814;6.368;2023-03-01T10:16:10;100939.22;;;5.49;50.27
15678;BME280;7939;50.814;6.368;2023-03-01T10:18:39;100931.97;;;5.81;50.12
15678;BME280;7939;50.814;6.368;2023-03-01T10:21:13;100939.69;;;5.61;49.30
15678;BME280;7939;50.814;6.368;2023-03-01T10:23:41;100934.38;;;5.78;49.63
15678;BME280;7939;50.814;6.368;2023-03-01T10:26:18;100926.22;;;5.62;49.14
15678;BME280;7939;50.814;6.368;2023-03-01T10:28:56;100927.13;;;5.87;50.09
15678;BME280;7939;50.814;6.368;2023-03-01T10:31:27;100916.22;;;5.89;49.67
15678;BME280;7939;50.814;6.368;2023-03-01T10:34:08;100914.00;;;5.97;49.84
15678;BME280;7939;50.814;6.368;2023-03-01T10:36:36;100910.81;;;6.03;49.51
15678;BME280;7939;50.814;6.368;2023-03-01T10:39:12;100912.00;;;6.11;50.05
15678;BME280;7939;50.814;6.368;2023-03-01T10:41:52;100910.53;;;6.17;49.88
15678;BME280;7939;50.814;6.368;2023-03-01T10:44:36;100914.94;;;5.99;49.70
15678;BME280;7939;50.814;6.368;2023-03-01T10:47:03;100903.78;;;6.18;50.31
15678;BME280;7939;50.814;6.368;2023-03-01T10:49:31;100900.66;;;6.25;49.78
15678;BME280;7939;50.814;6.368;2023-03-01T10:52:17;100897.25;;;6.25;49.39
15678;BME280;7939;50.814;6.368;2023-03-01T10:54:51;100899.44;;;6.15;49.30
15678;BME280;7939;50.814;6.368;2023-03-01T10:57:28;100891.84;;;6.15;48.98
15678;BME280;7939;50.814;6.368;2023-03-01T11:00:17;100886.06;;;6.19;49.20
15678;BME280;7939;50.814;6.368;2023-03-01T11:02:47;100891.41;;;6.27;49.31
15678;BME280;7939;50.814;6.368;2023-03-01T11:05:20;100889.94;;;6.34;48.94
15678;BME280;7939;50.814;6.368;2023-03-01T11:07:50;100885.09;;;6.40;50.18
15678;BME280;7939;50.814;6.368;2023-03-01T11:10:23;100877.84;;;6.51;48.85
15678;BME280;7939;50.814;6.368;2023-03-01T11:12:51;100874.25;;;6.69;50.07
15678;BME280;7939;50.814;6.368;2023-03-01T11:15:25;100875.22;;;6.73;49.94
15678;BME280;7939;50.814;6.368;2023-03-01T11:17:53;100871.25;;;6.81;49.08
15678;BME280;7939;50.814;6.368;2023-03-01T11:20:27;100868.88;;;6.86;48.50
15678;BME280;7939;50.814;6.368;2023-03-01T11:22:58;100856.63;;;8.17;56.29
15678;BME280;7939;50.814;6.368;2023-03-01T11:25:30;100853.03;;;9.45;51.04
15678;BME280;7939;50.814;6.368;2023-03-01T11:28:01;100839.19;;;9.36;47.30
15678;BME280;7939;50.814;6.368;2023-03-01T11:30:32;100835.94;;;9.04;47.17
15678;BME280;7939;50.814;6.368;2023-03-01T11:33:13;100832.00;;;8.80;46.86
15678;BME280;7939;50.814;6.368;2023-03-01T11:35:50;100823.06;;;8.63;46.46
15678;BME280;7939;50.814;6.368;2023-03-01T11:38:23;100836.53;;;8.57;47.71
15678;BME280;7939;50.814;6.368;2023-03-01T11:40:54;100834.56;;;8.47;47.59
15678;BME280;7939;50.814;6.368;2023-03-01T11:43:29;100834.22;;;8.35;45.64
15678;BME280;7939;50.814;6.368;2023-03-01T11:49:07;100824.22;;;8.41;47.56
15678;BME280;7939;50.814;6.368;2023-03-01T11:51:48;100807.16;;;8.37;47.57
15678;BME280;7939;50.814;6.368;2023-03-01T11:54:24;100805.66;;;8.45;46.97
15678;BME280;7939;50.814;6.368;2023-03-01T11:56:57;100801.41;;;8.46;46.59
15678;BME280;7939;50.814;6.368;2023-03-01T11:59:41;100790.38;;;8.47;47.26
15678;BME280;7939;50.814;6.368;2023-03-01T12:02:41;100795.13;;;8.33;46.85
15678;BME280;7939;50.814;6.368;2023-03-01T12:08:09;100783.25;;;8.33;46.20
15678;BME280;7939;50.814;6.368;2023-03-01T12:10:44;100783.28;;;8.35;46.14
15678;BME280;7939;50.814;6.368;2023-03-01T12:13:33;100785.78;;;8.33;45.64
15678;BME280;7939;50.814;6.368;2023-03-01T12:16:20;100782.31;;;8.30;45.03
15678;BME280;7939;50.814;6.368;2023-03-01T12:19:00;100785.09;;;8.37;46.11
15678;BME280;7939;50.814;6.368;2023-03-01T12:21:42;100778.28;;;8.36;45.08
15678;BME280;7939;50.814;6.368;2023-03-01T12:24:35;100780.53;;;8.27;44.55
15678;BME280;7939;50.814;6.368;2023-03-01T12:27:24;100781.91;;;8.48;46.30
15678;BME280;7939;50.814;6.368;2023-03-01T12:30:04;100773.38;;;8.44;45.00
15678;BME280;7939;50.814;6.368;2023-03-01T12:32:54;100780.06;;;8.41;45.96
15678;BME280;7939;50.814;6.368;2023-03-01T12:35:42;100773.78;;;8.29;45.67
15678;BME280;7939;50.814;6.368;2023-03-01T12:38:32;100772.38;;;8.39;44.96
15678;BME280;7939;50.814;6.368;2023-03-01T12:41:25;100774.19;;;8.43;45.14
15678;BME280;7939;50.814;6.368;2023-03-01T12:44:10;100769.63;;;8.31;46.13
15678;BME280;7939;50.814;6.368;2023-03-01T12:47:00;100774.72;;;8.31;45.10
15678;BME280;7939;50.814;6.368;2023-03-01T12:49:35;100762.34;;;8.45;46.22
15678;BME280;7939;50.814;6.368;2023-03-01T12:52:10;100762.88;;;8.33;45.84
15678;BME280;7939;50.814;6.368;2023-03-01T12:54:37;100762.03;;;8.34;44.57
15678;BME280;7939;50.814;6.368;2023-03-01T12:57:12;100751.69;;;8.28;44.77
15678;BME280;7939;50.814;6.368;2023-03-01T12:59:50;100748.09;;;8.19;45.28
15678;BME280;7939;50.814;6.368;2023-03-01T13:02:23;100750.50;;;8.14;43.61
15678;BME280;7939;50.814;6.368;2023-03-01T13:05:02;100748.09;;;8.19;44.54
15678;BME280;7939;50.814;6.368;2023-03-01T13:07:36;100743.81;;;8.18;43.94
15678;BME280;7939;50.814;6.368;2023-03-01T13:10:21;100742.06;;;8.17;43.03
15678;BME280;7939;50.814;6.368;2023-03-01T13:13:00;100749.28;;;8.00;43.54
15678;BME280;7939;50.814;6.368;2023-03-01T13:15:33;100741.16;;;8.13;44.31
15678;BME280;7939;50.814;6.368;2023-03-01T13:18:02;100735.16;;;8.11;44.12
15678;BME280;7939;50.814;6.368;2023-03-01T13:20:33;100740.16;;;8.08;43.90
15678;BME280;7939;50.814;6.368;2023-03-01T13:23:03;100730.22;;;8.17;44.00
15678;BME280;7939;50.814;6.368;2023-03-01T13:25:31;100732.81;;;8.19;44.08
15678;BME280;7939;50.814;6.368;2023-03-01T13:31:03;100719.31;;;8.23;43.94
15678;BME280;7939;50.814;6.368;2023-03-01T13:33:40;100722.69;;;8.22;43.23
15678;BME280;7939;50.814;6.368;2023-03-01T13:36:07;100711.81;;;8.29;43.79